sensor_id;sensor_type;location;lat;lon;timestamp;temperature;humidity
30764;DHT22;17497;51.476;7.770;2022-09-09T00:02:18;16.80;99.90
30764;DHT22;17497;51.476;7.770;2022-09-09T00:04:54;16.80;99.90
30764;DHT22;17497;51.476;7.770;2022-09-09T00:07:46;16.80;99.90
30764;DHT22;17497;51.476;7.770;2022-09-09T00:12:54;16.70;99.90
30764;DHT22;17497;51.476;7.770;2022-09-09T00:15:34;16.60;99.90
30764;DHT22;17497;51.476;7.770;2022-09-09T00:21:12;16.50;99.90
30764;DHT22;17497;51.476;7.770;2022-09-09T00:23:55;16.50;99.90
30764;DHT22;17497;51.476;7.770;2022-09-09T00:26:30;16.60;99.90
30764;DHT22;17497;51.476;7.770;2022-09-09T00:31:49;16.50;99.90
30764;DHT22;17497;51.476;7.770;2022-09-09T00:34:21;16.50;99.90
30764;DHT22;17497;51.476;7.770;2022-09-09T00:36:50;16.40;99.90
30764;DHT22;17497;51.476;7.770;2022-09-09T00:39:37;16.40;99.90
30764;DHT22;17497;51.476;7.770;2022-09-09T00:42:16;16.40;99.90
30764;DHT22;17497;51.476;7.770;2022-09-09T00:47:51;16.30;99.90
30764;DHT22;17497;51.476;7.770;2022-09-09T00:50:34;16.30;99.90
30764;DHT22;17497;51.476;7.770;2022-09-09T00:56:18;16.20;99.90
30764;DHT22;17497;51.476;7.770;2022-09-09T00:59:07;16.30;99.90
30764;DHT22;17497;51.476;7.770;2022-09-09T01:01:38;16.30;99.90
30764;DHT22;17497;51.476;7.770;2022-09-09T01:04:13;16.40;99.90
30764;DHT22;17497;51.476;7.770;2022-09-09T01:06:44;16.40;99.90
30764;DHT22;17497;51.476;7.770;2022-09-09T01:12:28;16.30;99.90
30764;DHT22;17497;51.476;7.770;2022-09-09T01:17:49;16.30;99.90
30764;DHT22;17497;51.476;7.770;2022-09-09T01:20:23;16.20;99.90
30764;DHT22;17497;51.476;7.770;2022-09-09T01:28:47;16.20;99.90
30764;DHT22;17497;51.476;7.770;2022-09-09T01:34:02;16.10;99.90
30764;DHT22;17497;51.476;7.770;2022-09-09T01:39:14;16.10;99.90
30764;DHT22;17497;51.476;7.770;2022-09-09T01:41:41;16.20;99.90
30764;DHT22;17497;51.476;7.770;2022-09-09T01:44:08;16.30;99.90
30764;DHT22;17497;51.476;7.770;2022-09-09T01:46:36;16.30;99.90
30764;DHT22;17497;51.476;7.770;2022-09-09T01:49:04;16.30;99.90
30764;DHT22;17497;51.476;7.770;2022-09-09T01:51:34;16.30;99.90
30764;DHT22;17497;51.476;7.770;2022-09-09T01:54:01;16.30;99.90
30764;DHT22;17497;51.476;7.770;2022-09-09T02:02:19;16.20;99.90
30764;DHT22;17497;51.476;7.770;2022-09-09T02:04:52;16.20;99.90
30764;DHT22;17497;51.476;7.770;2022-09-09T02:07:43;16.20;99.90
30764;DHT22;17497;51.476;7.770;2022-09-09T02:12:59;16.30;99.90
30764;DHT22;17497;51.476;7.770;2022-09-09T02:16:02;16.30;99.90
30764;DHT22;17497;51.476;7.770;2022-09-09T02:18:28;16.30;99.90
30764;DHT22;17497;51.476;7.770;2022-09-09T02:20:57;16.40;99.90
30764;DHT22;17497;51.476;7.770;2022-09-09T02:23:25;16.40;99.90
30764;DHT22;17497;51.476;7.770;2022-09-09T02:25:53;16.40;99.90
30764;DHT22;17497;51.476;7.770;2022-09-09T02:28:24;16.50;99.90
30764;DHT22;17497;51.476;7.770;2022-09-09T02:30:53;16.50;99.90
30764;DHT22;17497;51.476;7.770;2022-09-09T02:33:35;16.50;99.90
30764;DHT22;17497;51.476;7.770;2022-09-09T02:36:03;16.60;99.90
30764;DHT22;17497;51.476;7.770;2022-09-09T02:38:37;16.60;99.90
30764;DHT22;17497;51.476;7.770;2022-09-09T02:41:06;16.60;99.90
30764;DHT22;17497;51.476;7.770;2022-09-09T02:43:34;16.60;99.90
30764;DHT22;17497;51.476;7.770;2022-09-09T02:52:01;16.70;99.90
30764;DHT22;17497;51.476;7.770;2022-09-09T02:54:35;16.70;99.90
30764;DHT22;17497;51.476;7.770;2022-09-09T02:59:35;16.60;99.90
30764;DHT22;17497;51.476;7.770;2022-09-09T03:02:02;16.60;99.90
30764;DHT22;17497;51.476;7.770;2022-09-09T03:04:29;16.60;99.90
30764;DHT22;17497;51.476;7.770;2022-09-09T03:06:58;16.60;99.90
30764;DHT22;17497;51.476;7.770;2022-09-09T03:09:25;16.50;99.90
30764;DHT22;17497;51.476;7.770;2022-09-09T03:11:55;16.50;99.90
30764;DHT22;17497;51.476;7.770;2022-09-09T03:14:22;16.40;99.90
30764;DHT22;17497;51.476;7.770;2022-09-09T03:16:52;16.40;99.90
30764;DHT22;17497;51.476;7.770;2022-09-09T03:19:19;16.40;99.90
30764;DHT22;17497;51.476;7.770;2022-09-09T03:21:47;16.40;99.90
30764;DHT22;17497;51.476;7.770;2022-09-09T03:24:14;16.40;99.90
30764;DHT22;17497;51.476;7.770;2022-09-09T03:26:41;16.40;99.90
30764;DHT22;17497;51.476;7.770;2022-09-09T03:29:12;16.30;99.90
30764;DHT22;17497;51.476;7.770;2022-09-09T03:31:39;16.30;99.90
30764;DHT22;17497;51.476;7.770;2022-09-09T03:34:06;16.30;99.90
30764;DHT22;17497;51.476;7.770;2022-09-09T03:36:33;16.20;99.90
30764;DHT22;17497;51.476;7.770;2022-09-09T03:39:00;16.20;99.90
30764;DHT22;17497;51.476;7.770;2022-09-09T03:41:27;16.10;99.90
30764;DHT22;17497;51.476;7.770;2022-09-09T03:43:54;16.10;99.90
30764;DHT22;17497;51.476;7.770;2022-09-09T03:46:23;16.20;99.90
30764;DHT22;17497;51.476;7.770;2022-09-09T03:48:50;16.20;99.90
30764;DHT22;17497;51.476;7.770;2022-09-09T03:51:19;16.20;99.90
30764;DHT22;17497;51.476;7.770;2022-09-09T03:53:46;16.20;99.90
30764;DHT22;17497;51.476;7.770;2022-09-09T03:56:13;16.20;99.90
30764;DHT22;17497;51.476;7.770;2022-09-09T03:58:40;16.20;99.90
30764;DHT22;17497;51.476;7.770;2022-09-09T04:01:12;16.30;99.90
30764;DHT22;17497;51.476;7.770;2022-09-09T04:03:40;16.30;99.90
30764;DHT22;17497;51.476;7.770;2022-09-09T04:06:09;16.30;99.90
30764;DHT22;17497;51.476;7.770;2022-09-09T04:08:36;16.30;99.90
30764;DHT22;17497;51.476;7.770;2022-09-09T04:11:03;16.30;99.90
30764;DHT22;17497;51.476;7.770;2022-09-09T04:13:33;16.30;99.90
30764;DHT22;17497;51.476;7.770;2022-09-09T04:16:02;16.30;99.90
30764;DHT22;17497;51.476;7.770;2022-09-09T04:18:30;16.30;99.90
30764;DHT22;17497;51.476;7.770;2022-09-09T04:20:57;16.30;99.90
30764;DHT22;17497;51.476;7.770;2022-09-09T04:23:25;16.30;99.90
30764;DHT22;17497;51.476;7.770;2022-09-09T04:25:54;16.20;99.90
30764;DHT22;17497;51.476;7.770;2022-09-09T04:28:23;16.20;99.90
30764;DHT22;17497;51.476;7.770;2022-09-09T04:30:50;16.20;99.90
30764;DHT22;17497;51.476;7.770;2022-09-09T04:33:18;16.20;99.90
30764;DHT22;17497;51.476;7.770;2022-09-09T04:35:50;16.30;99.90
30764;DHT22;17497;51.476;7.770;2022-09-09T04:38:20;16.30;99.90
30764;DHT22;17497;51.476;7.770;2022-09-09T04:40:50;16.30;99.90
30764;DHT22;17497;51.476;7.770;2022-09-09T04:43:18;16.30;99.90
30764;DHT22;17497;51.476;7.770;2022-09-09T04:45:47;16.30;99.90
30764;DHT22;17497;51.476;7.770;2022-09-09T04:48:15;16.30;99.90
30764;DHT22;17497;51.476;7.770;2022-09-09T04:50:41;16.20;99.90
30764;DHT22;17497;51.476;7.770;2022-09-09T04:53:08;16.20;99.90
30764;DHT22;17497;51.476;7.770;2022-09-09T04:55:35;16.20;99.90
30764;DHT22;17497;51.476;7.770;2022-09-09T04:58:06;16.20;99.90
30764;DHT22;17497;51.476;7.770;2022-09-09T05:00:34;16.20;99.90
30764;DHT22;17497;51.476;7.770;2022-09-09T05:03:06;16.20;99.90
30764;DHT22;17497;51.476;7.770;2022-09-09T05:05:34;16.10;99.90
30764;DHT22;17497;51.476;7.770;2022-09-09T05:08:07;16.10;99.90
30764;DHT22;17497;51.476;7.770;2022-09-09T05:10:38;16.10;99.90
30764;DHT22;17497;51.476;7.770;2022-09-09T05:13:05;16.20;99.90
30764;DHT22;17497;51.476;7.770;2022-09-09T05:15:33;16.20;99.90
30764;DHT22;17497;51.476;7.770;2022-09-09T05:18:00;16.30;99.90
30764;DHT22;17497;51.476;7.770;2022-09-09T05:20:28;16.30;99.90
30764;DHT22;17497;51.476;7.770;2022-09-09T05:22:55;16.40;99.90
30764;DHT22;17497;51.476;7.770;2022-09-09T05:25:23;16.40;99.90
30764;DHT22;17497;51.476;7.770;2022-09-09T05:27:52;16.40;99.90
30764;DHT22;17497;51.476;7.770;2022-09-09T05:30:21;16.40;99.90
30764;DHT22;17497;51.476;7.770;2022-09-09T05:32:49;16.40;99.90
30764;DHT22;17497;51.476;7.770;2022-09-09T05:35:16;16.40;99.90
30764;DHT22;17497;51.476;7.770;2022-09-09T05:37:44;16.40;99.90
30764;DHT22;17497;51.476;7.770;2022-09-09T05:40:12;16.40;99.90
30764;DHT22;17497;51.476;7.770;2022-09-09T05:42:39;16.50;99.90
30764;DHT22;17497;51.476;7.770;2022-09-09T05:45:08;16.50;99.90
30764;DHT22;17497;51.476;7.770;2022-09-09T05:47:35;16.50;99.90
30764;DHT22;17497;51.476;7.770;2022-09-09T05:50:04;16.60;99.90
30764;DHT22;17497;51.476;7.770;2022-09-09T05:52:31;16.60;99.90
30764;DHT22;17497;51.476;7.770;2022-09-09T05:54:58;16.60;99.90
30764;DHT22;17497;51.476;7.770;2022-09-09T05:57:26;16.70;99.90
30764;DHT22;17497;51.476;7.770;2022-09-09T05:59:53;16.60;99.90
30764;DHT22;17497;51.476;7.770;2022-09-09T06:02:20;16.60;99.90
30764;DHT22;17497;51.476;7.770;2022-09-09T06:04:47;16.70;99.90
30764;DHT22;17497;51.476;7.770;2022-09-09T06:07:14;16.70;99.90
30764;DHT22;17497;51.476;7.770;2022-09-09T06:09:41;16.70;99.90
30764;DHT22;17497;51.476;7.770;2022-09-09T06:12:07;16.80;99.90
30764;DHT22;17497;51.476;7.770;2022-09-09T06:14:34;16.80;99.90
30764;DHT22;17497;51.476;7.770;2022-09-09T06:19:54;16.80;99.90
30764;DHT22;17497;51.476;7.770;2022-09-09T06:22:22;16.90;99.90
30764;DHT22;17497;51.476;7.770;2022-09-09T06:24:48;16.90;99.90
30764;DHT22;17497;51.476;7.770;2022-09-09T06:27:15;16.90;99.90
30764;DHT22;17497;51.476;7.770;2022-09-09T06:29:42;16.90;99.90
30764;DHT22;17497;51.476;7.770;2022-09-09T06:32:09;16.90;99.90
30764;DHT22;17497;51.476;7.770;2022-09-09T06:34:35;16.90;99.90
30764;DHT22;17497;51.476;7.770;2022-09-09T06:37:03;16.90;99.90
30764;DHT22;17497;51.476;7.770;2022-09-09T06:39:29;16.90;99.90
30764;DHT22;17497;51.476;7.770;2022-09-09T06:41:56;16.90;99.90
30764;DHT22;17497;51.476;7.770;2022-09-09T06:44:24;16.90;99.90
30764;DHT22;17497;51.476;7.770;2022-09-09T06:46:55;16.90;99.90
30764;DHT22;17497;51.476;7.770;2022-09-09T06:49:22;16.90;99.90
30764;DHT22;17497;51.476;7.770;2022-09-09T06:51:49;16.90;99.90
30764;DHT22;17497;51.476;7.770;2022-09-09T06:54:16;16.90;99.90
30764;DHT22;17497;51.476;7.770;2022-09-09T06:56:43;16.90;99.90
30764;DHT22;17497;51.476;7.770;2022-09-09T06:59:10;16.90;99.90
30764;DHT22;17497;51.476;7.770;2022-09-09T07:01:40;16.90;99.90
30764;DHT22;17497;51.476;7.770;2022-09-09T07:04:07;16.90;99.90
30764;DHT22;17497;51.476;7.770;2022-09-09T07:06:37;16.90;99.90
30764;DHT22;17497;51.476;7.770;2022-09-09T07:09:06;16.90;99.90
30764;DHT22;17497;51.476;7.770;2022-09-09T07:11:38;16.90;99.90
30764;DHT22;17497;51.476;7.770;2022-09-09T07:14:05;16.90;99.90
30764;DHT22;17497;51.476;7.770;2022-09-09T07:16:32;16.90;99.90
30764;DHT22;17497;51.476;7.770;2022-09-09T07:19:00;16.90;99.90
30764;DHT22;17497;51.476;7.770;2022-09-09T07:21:28;17.00;99.90
30764;DHT22;17497;51.476;7.770;2022-09-09T07:23:55;16.90;99.90
30764;DHT22;17497;51.476;7.770;2022-09-09T07:26:24;16.90;99.90
30764;DHT22;17497;51.476;7.770;2022-09-09T07:28:52;16.90;99.90
30764;DHT22;17497;51.476;7.770;2022-09-09T07:31:26;16.80;99.90
30764;DHT22;17497;51.476;7.770;2022-09-09T07:33:53;16.70;99.90
30764;DHT22;17497;51.476;7.770;2022-09-09T07:36:34;16.50;99.90
30764;DHT22;17497;51.476;7.770;2022-09-09T07:39:04;16.40;99.90
30764;DHT22;17497;51.476;7.770;2022-09-09T07:41:34;16.30;99.90
30764;DHT22;17497;51.476;7.770;2022-09-09T07:44:19;16.30;99.90
30764;DHT22;17497;51.476;7.770;2022-09-09T07:46:48;16.30;99.90
30764;DHT22;17497;51.476;7.770;2022-09-09T07:49:15;16.30;99.90
30764;DHT22;17497;51.476;7.770;2022-09-09T07:51:44;16.40;99.90
30764;DHT22;17497;51.476;7.770;2022-09-09T07:54:13;16.40;99.90
30764;DHT22;17497;51.476;7.770;2022-09-09T07:56:42;16.40;99.90
30764;DHT22;17497;51.476;7.770;2022-09-09T07:59:09;16.50;99.90
30764;DHT22;17497;51.476;7.770;2022-09-09T08:01:38;16.50;99.90
30764;DHT22;17497;51.476;7.770;2022-09-09T08:04:11;16.50;99.90
30764;DHT22;17497;51.476;7.770;2022-09-09T08:06:47;16.50;99.90
30764;DHT22;17497;51.476;7.770;2022-09-09T08:09:15;16.60;99.90
30764;DHT22;17497;51.476;7.770;2022-09-09T08:11:43;16.70;99.90
30764;DHT22;17497;51.476;7.770;2022-09-09T08:14:11;16.70;99.90
30764;DHT22;17497;51.476;7.770;2022-09-09T08:16:41;16.80;99.90
30764;DHT22;17497;51.476;7.770;2022-09-09T08:19:08;16.90;99.90
30764;DHT22;17497;51.476;7.770;2022-09-09T08:21:37;17.00;99.90
30764;DHT22;17497;51.476;7.770;2022-09-09T08:24:05;17.10;99.90
30764;DHT22;17497;51.476;7.770;2022-09-09T08:26:45;17.10;99.90
30764;DHT22;17497;51.476;7.770;2022-09-09T08:29:13;17.20;99.90
30764;DHT22;17497;51.476;7.770;2022-09-09T08:31:48;17.20;99.90
30764;DHT22;17497;51.476;7.770;2022-09-09T08:34:15;17.30;99.90
30764;DHT22;17497;51.476;7.770;2022-09-09T08:36:44;17.30;99.90
30764;DHT22;17497;51.476;7.770;2022-09-09T08:39:13;17.40;99.90
30764;DHT22;17497;51.476;7.770;2022-09-09T08:47:06;17.50;99.90
30764;DHT22;17497;51.476;7.770;2022-09-09T08:52:32;17.60;99.90
30764;DHT22;17497;51.476;7.770;2022-09-09T08:57:57;18.00;99.90
30764;DHT22;17497;51.476;7.770;2022-09-09T09:00:44;18.20;99.90
30764;DHT22;17497;51.476;7.770;2022-09-09T09:03:23;18.20;99.90
30764;DHT22;17497;51.476;7.770;2022-09-09T09:11:43;18.30;99.90
30764;DHT22;17497;51.476;7.770;2022-09-09T09:14:20;18.50;99.90
30764;DHT22;17497;51.476;7.770;2022-09-09T09:19:31;18.50;99.90
30764;DHT22;17497;51.476;7.770;2022-09-09T09:27:21;18.60;99.90
30764;DHT22;17497;51.476;7.770;2022-09-09T09:29:54;18.80;99.90
30764;DHT22;17497;51.476;7.770;2022-09-09T09:32:56;18.90;99.90
30764;DHT22;17497;51.476;7.770;2022-09-09T09:35:24;19.00;99.90
30764;DHT22;17497;51.476;7.770;2022-09-09T09:37:52;19.10;99.90
30764;DHT22;17497;51.476;7.770;2022-09-09T09:40:51;19.10;99.90
30764;DHT22;17497;51.476;7.770;2022-09-09T09:43:27;19.20;99.90
30764;DHT22;17497;51.476;7.770;2022-09-09T09:45:55;19.30;99.90
30764;DHT22;17497;51.476;7.770;2022-09-09T09:48:43;19.50;99.90
30764;DHT22;17497;51.476;7.770;2022-09-09T09:51:11;19.30;99.90
30764;DHT22;17497;51.476;7.770;2022-09-09T09:53:42;19.50;99.90
30764;DHT22;17497;51.476;7.770;2022-09-09T09:56:11;19.70;99.90
30764;DHT22;17497;51.476;7.770;2022-09-09T10:01:28;20.30;99.90
30764;DHT22;17497;51.476;7.770;2022-09-09T10:04:16;20.40;99.90
30764;DHT22;17497;51.476;7.770;2022-09-09T10:06:45;20.80;99.90
30764;DHT22;17497;51.476;7.770;2022-09-09T10:09:29;21.00;99.90
30764;DHT22;17497;51.476;7.770;2022-09-09T10:22:52;21.50;99.90
30764;DHT22;17497;51.476;7.770;2022-09-09T10:25:55;21.90;99.90
30764;DHT22;17497;51.476;7.770;2022-09-09T10:34:19;21.40;99.90
30764;DHT22;17497;51.476;7.770;2022-09-09T10:36:57;21.00;99.90
30764;DHT22;17497;51.476;7.770;2022-09-09T10:42:09;21.60;99.90
30764;DHT22;17497;51.476;7.770;2022-09-09T10:53:12;22.70;99.90
30764;DHT22;17497;51.476;7.770;2022-09-09T10:55:50;23.00;99.90
30764;DHT22;17497;51.476;7.770;2022-09-09T10:58:25;23.50;99.90
30764;DHT22;17497;51.476;7.770;2022-09-09T11:00:57;23.20;99.90
30764;DHT22;17497;51.476;7.770;2022-09-09T11:03:29;22.30;99.90
30764;DHT22;17497;51.476;7.770;2022-09-09T11:08:30;22.20;99.90
30764;DHT22;17497;51.476;7.770;2022-09-09T11:11:09;22.20;99.90
30764;DHT22;17497;51.476;7.770;2022-09-09T11:14:01;21.60;99.90
30764;DHT22;17497;51.476;7.770;2022-09-09T11:21:48;20.30;99.90
30764;DHT22;17497;51.476;7.770;2022-09-09T11:30:15;19.90;99.90
30764;DHT22;17497;51.476;7.770;2022-09-09T11:40:41;18.40;99.90
30764;DHT22;17497;51.476;7.770;2022-09-09T11:43:27;18.40;99.90
30764;DHT22;17497;51.476;7.770;2022-09-09T11:45:57;18.40;99.90
30764;DHT22;17497;51.476;7.770;2022-09-09T11:48:36;18.70;99.90
30764;DHT22;17497;51.476;7.770;2022-09-09T11:54:01;20.70;99.90
30764;DHT22;17497;51.476;7.770;2022-09-09T11:56:43;21.90;99.90
30764;DHT22;17497;51.476;7.770;2022-09-09T11:59:32;22.90;99.90
30764;DHT22;17497;51.476;7.770;2022-09-09T12:02:22;23.50;99.90
30764;DHT22;17497;51.476;7.770;2022-09-09T12:05:05;23.70;99.90
30764;DHT22;17497;51.476;7.770;2022-09-09T12:10:22;23.20;99.90
30764;DHT22;17497;51.476;7.770;2022-09-09T12:12:50;24.00;99.90
30764;DHT22;17497;51.476;7.770;2022-09-09T12:15:23;24.50;99.90
30764;DHT22;17497;51.476;7.770;2022-09-09T12:17:54;24.80;99.90
30764;DHT22;17497;51.476;7.770;2022-09-09T12:23:24;24.00;99.90
30764;DHT22;17497;51.476;7.770;2022-09-09T12:31:55;22.10;99.90
30764;DHT22;17497;51.476;7.770;2022-09-09T12:34:42;22.20;99.90
30764;DHT22;17497;51.476;7.770;2022-09-09T12:40:27;23.20;99.90
30764;DHT22;17497;51.476;7.770;2022-09-09T12:42:54;23.00;99.90
30764;DHT22;17497;51.476;7.770;2022-09-09T12:45:27;23.00;99.90
30764;DHT22;17497;51.476;7.770;2022-09-09T12:47:58;22.80;99.90
30764;DHT22;17497;51.476;7.770;2022-09-09T12:52:56;21.60;99.90
30764;DHT22;17497;51.476;7.770;2022-09-09T12:55:28;21.30;99.90
30764;DHT22;17497;51.476;7.770;2022-09-09T12:57:57;21.40;99.90
30764;DHT22;17497;51.476;7.770;2022-09-09T13:00:26;21.20;99.90
30764;DHT22;17497;51.476;7.770;2022-09-09T13:02:55;21.10;99.90
30764;DHT22;17497;51.476;7.770;2022-09-09T13:05:42;21.10;99.90
30764;DHT22;17497;51.476;7.770;2022-09-09T13:08:11;21.20;99.90
30764;DHT22;17497;51.476;7.770;2022-09-09T13:10:50;21.20;99.90
30764;DHT22;17497;51.476;7.770;2022-09-09T13:13:39;21.50;99.90
30764;DHT22;17497;51.476;7.770;2022-09-09T13:16:19;22.00;99.90
30764;DHT22;17497;51.476;7.770;2022-09-09T13:18:46;22.70;99.90
30764;DHT22;17497;51.476;7.770;2022-09-09T13:21:13;23.40;99.90
30764;DHT22;17497;51.476;7.770;2022-09-09T13:23:41;23.70;99.90
30764;DHT22;17497;51.476;7.770;2022-09-09T13:26:24;23.70;99.90
30764;DHT22;17497;51.476;7.770;2022-09-09T13:28:52;23.80;99.90
30764;DHT22;17497;51.476;7.770;2022-09-09T13:31:30;23.50;99.90
30764;DHT22;17497;51.476;7.770;2022-09-09T13:33:59;23.20;99.90
30764;DHT22;17497;51.476;7.770;2022-09-09T13:36:31;22.90;99.90
30764;DHT22;17497;51.476;7.770;2022-09-09T13:39:01;22.60;99.90
30764;DHT22;17497;51.476;7.770;2022-09-09T13:41:41;22.40;99.90
30764;DHT22;17497;51.476;7.770;2022-09-09T13:44:25;22.20;99.90
30764;DHT22;17497;51.476;7.770;2022-09-09T13:49:32;21.70;99.90
30764;DHT22;17497;51.476;7.770;2022-09-09T13:52:04;21.30;99.90
30764;DHT22;17497;51.476;7.770;2022-09-09T13:54:31;21.10;99.90
30764;DHT22;17497;51.476;7.770;2022-09-09T13:56:58;20.80;99.90
30764;DHT22;17497;51.476;7.770;2022-09-09T13:59:25;20.80;99.90
30764;DHT22;17497;51.476;7.770;2022-09-09T14:02:13;20.60;99.90
30764;DHT22;17497;51.476;7.770;2022-09-09T14:04:40;20.60;99.90
30764;DHT22;17497;51.476;7.770;2022-09-09T14:07:12;20.60;99.90
30764;DHT22;17497;51.476;7.770;2022-09-09T14:09:41;20.40;99.90
30764;DHT22;17497;51.476;7.770;2022-09-09T14:12:12;20.10;99.90
30764;DHT22;17497;51.476;7.770;2022-09-09T14:14:38;20.20;99.90
30764;DHT22;17497;51.476;7.770;2022-09-09T14:17:05;20.40;99.90
30764;DHT22;17497;51.476;7.770;2022-09-09T14:19:33;20.60;99.90
30764;DHT22;17497;51.476;7.770;2022-09-09T14:22:00;20.70;99.90
30764;DHT22;17497;51.476;7.770;2022-09-09T14:24:27;20.60;99.90
30764;DHT22;17497;51.476;7.770;2022-09-09T14:26:54;20.30;99.90
30764;DHT22;17497;51.476;7.770;2022-09-09T14:29:21;20.30;99.90
30764;DHT22;17497;51.476;7.770;2022-09-09T14:31:48;20.20;99.90
30764;DHT22;17497;51.476;7.770;2022-09-09T14:34:16;19.40;99.90
30764;DHT22;17497;51.476;7.770;2022-09-09T14:36:42;18.80;99.90
30764;DHT22;17497;51.476;7.770;2022-09-09T14:39:11;18.20;99.90
30764;DHT22;17497;51.476;7.770;2022-09-09T14:41:37;18.00;99.90
30764;DHT22;17497;51.476;7.770;2022-09-09T14:44:04;17.80;99.90
30764;DHT22;17497;51.476;7.770;2022-09-09T14:46:31;17.80;99.90
30764;DHT22;17497;51.476;7.770;2022-09-09T14:48:59;17.90;99.90
30764;DHT22;17497;51.476;7.770;2022-09-09T14:51:26;17.90;99.90
30764;DHT22;17497;51.476;7.770;2022-09-09T14:53:57;17.80;99.90
30764;DHT22;17497;51.476;7.770;2022-09-09T14:56:26;17.80;99.90
30764;DHT22;17497;51.476;7.770;2022-09-09T14:58:55;17.80;99.90
30764;DHT22;17497;51.476;7.770;2022-09-09T15:01:22;17.80;99.90
30764;DHT22;17497;51.476;7.770;2022-09-09T15:03:51;18.00;99.90
30764;DHT22;17497;51.476;7.770;2022-09-09T15:06:19;18.10;99.90
30764;DHT22;17497;51.476;7.770;2022-09-09T15:08:47;18.10;99.90
30764;DHT22;17497;51.476;7.770;2022-09-09T15:11:15;18.00;99.90
30764;DHT22;17497;51.476;7.770;2022-09-09T15:13:43;17.90;99.90
30764;DHT22;17497;51.476;7.770;2022-09-09T15:16:11;17.80;99.90
30764;DHT22;17497;51.476;7.770;2022-09-09T15:18:39;17.40;99.90
30764;DHT22;17497;51.476;7.770;2022-09-09T15:21:10;17.00;99.90
30764;DHT22;17497;51.476;7.770;2022-09-09T15:23:38;16.90;99.90
30764;DHT22;17497;51.476;7.770;2022-09-09T15:26:05;16.80;99.90
30764;DHT22;17497;51.476;7.770;2022-09-09T15:28:33;16.80;99.90
30764;DHT22;17497;51.476;7.770;2022-09-09T15:33:36;16.90;99.90
30764;DHT22;17497;51.476;7.770;2022-09-09T15:36:21;16.90;99.90
30764;DHT22;17497;51.476;7.770;2022-09-09T15:38:48;17.00;99.90
30764;DHT22;17497;51.476;7.770;2022-09-09T15:41:17;17.00;99.90
30764;DHT22;17497;51.476;7.770;2022-09-09T15:43:48;17.00;99.90
30764;DHT22;17497;51.476;7.770;2022-09-09T15:46:23;16.90;99.90
30764;DHT22;17497;51.476;7.770;2022-09-09T15:48:51;16.90;99.90
30764;DHT22;17497;51.476;7.770;2022-09-09T15:51:20;16.90;99.90
30764;DHT22;17497;51.476;7.770;2022-09-09T15:54:09;16.90;99.90
30764;DHT22;17497;51.476;7.770;2022-09-09T15:56:36;16.80;99.90
30764;DHT22;17497;51.476;7.770;2022-09-09T15:59:09;16.80;99.90
30764;DHT22;17497;51.476;7.770;2022-09-09T16:01:50;16.70;99.90
30764;DHT22;17497;51.476;7.770;2022-09-09T16:04:18;16.70;99.90
30764;DHT22;17497;51.476;7.770;2022-09-09T16:06:59;16.60;99.90
30764;DHT22;17497;51.476;7.770;2022-09-09T16:09:27;16.40;99.90
30764;DHT22;17497;51.476;7.770;2022-09-09T16:11:59;16.20;99.90
30764;DHT22;17497;51.476;7.770;2022-09-09T16:14:27;16.10;99.90
30764;DHT22;17497;51.476;7.770;2022-09-09T16:16:54;16.00;99.90
30764;DHT22;17497;51.476;7.770;2022-09-09T16:19:24;15.90;99.90
30764;DHT22;17497;51.476;7.770;2022-09-09T16:21:51;15.90;99.90
30764;DHT22;17497;51.476;7.770;2022-09-09T16:24:20;15.80;99.90
30764;DHT22;17497;51.476;7.770;2022-09-09T16:26:48;15.70;99.90
30764;DHT22;17497;51.476;7.770;2022-09-09T16:29:17;15.70;99.90
30764;DHT22;17497;51.476;7.770;2022-09-09T16:31:45;15.70;99.90
30764;DHT22;17497;51.476;7.770;2022-09-09T16:34:14;15.60;99.90
30764;DHT22;17497;51.476;7.770;2022-09-09T16:36:42;15.60;99.90
30764;DHT22;17497;51.476;7.770;2022-09-09T16:39:15;15.60;99.90
30764;DHT22;17497;51.476;7.770;2022-09-09T16:41:45;15.50;99.90
30764;DHT22;17497;51.476;7.770;2022-09-09T16:44:13;15.50;99.90
30764;DHT22;17497;51.476;7.770;2022-09-09T16:46:42;15.50;99.90
30764;DHT22;17497;51.476;7.770;2022-09-09T16:49:13;15.60;99.90
30764;DHT22;17497;51.476;7.770;2022-09-09T16:51:49;15.60;99.90
30764;DHT22;17497;51.476;7.770;2022-09-09T16:54:19;15.70;99.90
30764;DHT22;17497;51.476;7.770;2022-09-09T16:56:47;15.70;99.90
30764;DHT22;17497;51.476;7.770;2022-09-09T16:59:16;15.80;99.90
30764;DHT22;17497;51.476;7.770;2022-09-09T17:01:45;15.90;99.90
30764;DHT22;17497;51.476;7.770;2022-09-09T17:04:14;16.00;99.90
30764;DHT22;17497;51.476;7.770;2022-09-09T17:06:48;16.00;99.90
30764;DHT22;17497;51.476;7.770;2022-09-09T17:09:19;16.10;99.90
30764;DHT22;17497;51.476;7.770;2022-09-09T17:11:46;16.20;99.90
30764;DHT22;17497;51.476;7.770;2022-09-09T17:14:16;16.20;99.90
30764;DHT22;17497;51.476;7.770;2022-09-09T17:16:43;16.30;99.90
30764;DHT22;17497;51.476;7.770;2022-09-09T17:19:11;16.40;99.90
30764;DHT22;17497;51.476;7.770;2022-09-09T17:21:38;16.40;99.90
30764;DHT22;17497;51.476;7.770;2022-09-09T17:24:28;16.40;99.90
30764;DHT22;17497;51.476;7.770;2022-09-09T17:26:56;16.40;99.90
30764;DHT22;17497;51.476;7.770;2022-09-09T17:29:23;16.40;99.90
30764;DHT22;17497;51.476;7.770;2022-09-09T17:31:51;16.40;99.90
30764;DHT22;17497;51.476;7.770;2022-09-09T17:34:18;16.40;99.90
30764;DHT22;17497;51.476;7.770;2022-09-09T17:36:45;16.40;99.90
30764;DHT22;17497;51.476;7.770;2022-09-09T17:39:11;16.30;99.90
30764;DHT22;17497;51.476;7.770;2022-09-09T17:41:39;16.30;99.90
30764;DHT22;17497;51.476;7.770;2022-09-09T17:44:06;16.30;99.90
30764;DHT22;17497;51.476;7.770;2022-09-09T17:46:36;16.30;99.90
30764;DHT22;17497;51.476;7.770;2022-09-09T17:49:07;16.20;99.90
30764;DHT22;17497;51.476;7.770;2022-09-09T17:51:36;16.10;99.90
30764;DHT22;17497;51.476;7.770;2022-09-09T17:54:06;16.10;99.90
30764;DHT22;17497;51.476;7.770;2022-09-09T17:56:37;16.00;99.90
30764;DHT22;17497;51.476;7.770;2022-09-09T17:59:05;15.90;99.90
30764;DHT22;17497;51.476;7.770;2022-09-09T18:01:34;15.80;99.90
30764;DHT22;17497;51.476;7.770;2022-09-09T18:04:03;15.80;99.90
30764;DHT22;17497;51.476;7.770;2022-09-09T18:06:42;15.70;99.90
30764;DHT22;17497;51.476;7.770;2022-09-09T18:09:12;15.60;99.90
30764;DHT22;17497;51.476;7.770;2022-09-09T18:11:44;15.50;99.90
30764;DHT22;17497;51.476;7.770;2022-09-09T18:14:19;15.50;99.90
30764;DHT22;17497;51.476;7.770;2022-09-09T18:16:46;15.50;99.90
30764;DHT22;17497;51.476;7.770;2022-09-09T18:19:17;15.40;99.90
30764;DHT22;17497;51.476;7.770;2022-09-09T18:21:44;15.40;99.90
30764;DHT22;17497;51.476;7.770;2022-09-09T18:24:13;15.40;99.90
30764;DHT22;17497;51.476;7.770;2022-09-09T18:26:40;15.40;99.90
30764;DHT22;17497;51.476;7.770;2022-09-09T18:29:09;15.40;99.90